createdAt,value
2023-03-23T15:58:46.800Z,17.71
2023-03-23T16:01:21.266Z,17.79
2023-03-23T16:03:51.836Z,17.73
2023-03-23T16:06:25.350Z,17.67
2023-03-23T16:08:55.228Z,17.58
2023-03-23T16:11:24.915Z,17.78
2023-03-23T16:13:52.286Z,17.59
2023-03-23T16:16:22.910Z,17.37
2023-03-23T16:18:50.791Z,17.37
2023-03-23T16:21:18.148Z,17.78
2023-03-23T16:23:46.480Z,17.54
2023-03-23T16:26:14.609Z,17.71
2023-03-23T16:28:43.221Z,17.80
2023-03-23T16:31:10.842Z,17.61
2023-03-23T16:33:38.155Z,17.56
2023-03-23T16:36:06.531Z,17.52
2023-03-23T16:38:49.085Z,17.44
2023-03-23T16:41:18.370Z,17.37
2023-03-23T16:43:45.882Z,17.35
2023-03-23T16:46:14.913Z,17.55
2023-03-23T16:48:43.070Z,17.40
2023-03-23T16:51:10.348Z,17.32
2023-03-23T16:53:37.791Z,17.54
2023-03-23T16:56:05.575Z,17.61
2023-03-23T16:58:33.238Z,17.23
2023-03-23T17:01:02.137Z,17.13
2023-03-23T17:03:30.051Z,17.39
2023-03-23T17:05:59.756Z,17.52
2023-03-23T17:08:30.436Z,17.30
2023-03-23T17:10:58.829Z,17.23
2023-03-23T17:13:28.155Z,17.12
2023-03-23T17:15:57.260Z,17.11
2023-03-23T17:18:25.057Z,17.04
2023-03-23T17:20:54.153Z,16.92
2023-03-23T17:23:21.716Z,17.13
2023-03-23T17:25:49.299Z,16.96
2023-03-23T17:28:19.457Z,17.02
2023-03-23T17:30:48.504Z,17.06
2023-03-23T17:33:15.954Z,16.97
2023-03-23T17:35:46.113Z,16.90
2023-03-23T17:38:13.549Z,17.05
2023-03-23T17:40:40.846Z,17.15
2023-03-23T17:43:08.317Z,16.88
2023-03-23T17:45:36.675Z,17.00
2023-03-23T17:48:07.711Z,16.99
2023-03-23T17:50:36.848Z,16.95
2023-03-23T17:53:04.593Z,16.82
2023-03-23T17:55:31.970Z,16.94
2023-03-23T17:57:59.214Z,16.98
2023-03-23T18:00:26.592Z,16.92
2023-03-23T18:02:53.879Z,17.16
2023-03-23T18:05:21.340Z,17.04
2023-03-23T18:07:48.749Z,17.02
2023-03-23T18:10:16.599Z,16.74
2023-03-23T18:12:44.138Z,16.94
2023-03-23T18:15:12.303Z,16.99
2023-03-23T18:17:40.217Z,17.02
2023-03-23T18:20:09.508Z,16.85
2023-03-23T18:22:36.950Z,16.82
2023-03-23T18:25:05.241Z,16.64
2023-03-23T18:27:33.223Z,16.85
2023-03-23T18:30:00.727Z,16.68
2023-03-23T18:32:28.158Z,16.62
2023-03-23T18:34:56.078Z,16.76
2023-03-23T18:37:23.336Z,16.80
2023-03-23T18:39:52.872Z,16.81
2023-03-23T18:42:21.104Z,16.75
2023-03-23T18:44:48.365Z,16.50
2023-03-23T18:47:15.674Z,16.62
2023-03-23T18:49:43.009Z,16.64
2023-03-23T18:52:10.748Z,16.57
2023-03-23T18:54:40.407Z,16.61
2023-03-23T18:57:07.790Z,16.71
2023-03-23T18:59:35.917Z,16.60
2023-03-23T19:02:05.582Z,16.53
2023-03-23T19:04:33.163Z,16.60
2023-03-23T19:07:03.934Z,16.30
2023-03-23T19:09:33.028Z,16.42
2023-03-23T19:12:00.833Z,16.27
2023-03-23T19:14:28.146Z,16.50
2023-03-23T19:16:55.647Z,16.65
2023-03-23T19:19:24.832Z,16.56
2023-03-23T19:24:20.824Z,16.37
2023-03-23T19:26:48.754Z,16.40
2023-03-23T19:29:26.689Z,16.14
2023-03-23T19:31:55.880Z,16.53
2023-03-23T19:34:24.450Z,16.04
2023-03-23T19:36:56.469Z,15.99
2023-03-23T19:39:32.181Z,15.72
2023-03-23T19:41:59.651Z,16.12
2023-03-23T19:44:28.704Z,15.99
2023-03-23T19:46:56.667Z,15.99
2023-03-23T19:49:24.982Z,15.54
2023-03-23T19:52:08.014Z,15.28
2023-03-23T19:54:39.006Z,15.44
2023-03-23T19:57:06.976Z,15.63
2023-03-23T19:59:35.775Z,15.49
2023-03-23T20:02:03.849Z,15.42
2023-03-23T20:04:31.247Z,15.40
2023-03-23T20:07:00.157Z,15.37
2023-03-23T20:09:28.549Z,15.32
2023-03-23T20:11:59.060Z,15.32
2023-03-23T20:14:26.587Z,15.23
2023-03-23T20:16:53.959Z,15.18
2023-03-23T20:19:21.472Z,15.14
2023-03-23T20:21:48.876Z,15.24
2023-03-23T20:24:16.512Z,15.31
2023-03-23T20:26:44.737Z,15.31
2023-03-23T20:29:12.037Z,15.46
2023-03-23T20:31:41.555Z,15.29
2023-03-23T20:34:11.465Z,15.34
2023-03-23T20:36:42.481Z,15.18
2023-03-23T20:39:15.301Z,15.36
2023-03-23T20:41:44.381Z,15.34
2023-03-23T20:44:16.149Z,15.36
2023-03-23T20:46:48.208Z,15.35
2023-03-23T20:49:16.280Z,15.50
2023-03-23T20:51:44.870Z,15.54
2023-03-23T20:54:15.610Z,15.72
2023-03-23T20:56:44.002Z,15.54
2023-03-23T20:59:12.476Z,15.32
2023-03-23T21:01:40.438Z,15.41
2023-03-23T21:04:14.946Z,15.31
2023-03-23T21:06:44.131Z,15.39
2023-03-23T21:09:12.626Z,15.56
2023-03-23T21:11:39.978Z,15.68
2023-03-23T21:14:07.618Z,15.75
2023-03-23T21:16:35.404Z,15.75
2023-03-23T21:19:03.591Z,15.67
2023-03-23T21:21:33.183Z,15.70
2023-03-23T21:24:02.568Z,15.73
2023-03-23T21:26:30.577Z,15.72
2023-03-23T21:29:00.691Z,15.71
2023-03-23T21:31:33.718Z,15.72
2023-03-23T21:34:01.942Z,15.76
2023-03-23T21:36:29.413Z,15.83
2023-03-23T21:38:56.963Z,15.83
2023-03-23T21:41:24.960Z,15.83
2023-03-23T21:43:54.169Z,15.90
2023-03-23T21:46:21.753Z,15.87
2023-03-23T21:48:51.586Z,15.67
2023-03-23T21:51:25.022Z,15.97
2023-03-23T21:53:56.812Z,15.97
2023-03-23T21:56:26.164Z,15.95
2023-03-23T21:58:53.893Z,16.01
2023-03-23T22:01:21.388Z,15.87
2023-03-23T22:03:49.093Z,15.82
2023-03-23T22:06:23.585Z,15.84
2023-03-23T22:08:51.430Z,15.88
2023-03-23T22:11:23.188Z,15.79
2023-03-23T22:13:51.736Z,16.00
2023-03-23T22:16:20.153Z,15.87
2023-03-23T22:18:48.570Z,15.85
2023-03-23T22:21:17.240Z,15.77
2023-03-23T22:23:46.225Z,15.65
2023-03-23T22:26:16.316Z,15.67
2023-03-23T22:28:44.124Z,15.65
2023-03-23T22:31:17.407Z,15.56
2023-03-23T22:33:46.350Z,15.63
2023-03-23T22:36:14.101Z,15.56
2023-03-23T22:38:43.898Z,15.62
2023-03-23T22:41:17.189Z,15.54
2023-03-23T22:43:44.862Z,15.62
2023-03-23T22:46:12.342Z,15.53
2023-03-23T22:48:40.837Z,15.28
2023-03-23T22:51:08.762Z,15.32
2023-03-23T22:53:36.077Z,15.42
2023-03-23T22:56:04.096Z,15.12
2023-03-23T22:58:31.886Z,15.23
2023-03-23T23:01:08.039Z,15.22
2023-03-23T23:03:35.572Z,15.21
2023-03-23T23:06:03.107Z,15.27
2023-03-23T23:08:32.010Z,15.24
2023-03-23T23:11:01.253Z,15.20
2023-03-23T23:13:30.251Z,15.15
2023-03-23T23:16:01.048Z,15.27
2023-03-23T23:18:30.361Z,15.45
2023-03-23T23:20:59.778Z,15.35
2023-03-23T23:23:27.966Z,15.32
2023-03-23T23:25:55.429Z,15.51
2023-03-23T23:28:23.168Z,15.29
2023-03-23T23:30:50.955Z,15.49
2023-03-23T23:33:19.078Z,15.57
2023-03-23T23:35:47.957Z,15.25
2023-03-23T23:38:16.897Z,15.23
2023-03-23T23:40:46.033Z,15.51
2023-03-23T23:43:15.733Z,15.40
2023-03-23T23:45:44.377Z,15.32
2023-03-23T23:48:12.685Z,15.44
2023-03-23T23:50:40.103Z,15.60
2023-03-23T23:53:09.792Z,15.64
2023-03-23T23:55:39.407Z,15.79
2023-03-23T23:58:06.812Z,15.53
